createdAt,value
2018-04-01T00:00:28.226Z,84.10
2018-04-01T00:02:56.141Z,84.10
2018-04-01T00:05:23.255Z,84.10
2018-04-01T00:07:50.320Z,84.40
2018-04-01T00:10:17.378Z,85.10
2018-04-01T00:12:44.467Z,85.00
2018-04-01T00:15:11.532Z,85.20
2018-04-01T00:17:39.357Z,84.60
2018-04-01T00:20:06.822Z,84.60
2018-04-01T00:22:33.894Z,85.80
2018-04-01T00:25:00.970Z,88.30
2018-04-01T00:27:28.586Z,89.50
2018-04-01T00:29:55.643Z,90.00
2018-04-01T00:32:22.705Z,90.00
2018-04-01T00:34:50.957Z,89.70
2018-04-01T00:37:18.022Z,89.60
2018-04-01T00:39:45.090Z,89.40
2018-04-01T00:42:13.530Z,89.10
2018-04-01T00:44:40.603Z,89.10
2018-04-01T00:47:07.692Z,88.80
2018-04-01T00:49:34.813Z,89.20
2018-04-01T00:52:01.878Z,90.10
2018-04-01T00:54:29.069Z,90.00
2018-04-01T00:56:57.713Z,89.70
2018-04-01T00:59:24.789Z,89.70
2018-04-01T01:01:51.845Z,89.90
2018-04-01T01:04:19.213Z,90.10
2018-04-01T01:06:46.285Z,90.20
2018-04-01T01:09:14.106Z,90.30
2018-04-01T01:11:41.220Z,90.20
2018-04-01T01:14:08.309Z,90.30
2018-04-01T01:16:35.381Z,90.50
2018-04-01T01:19:04.161Z,91.20
2018-04-01T01:21:31.217Z,91.20
2018-04-01T01:23:58.457Z,90.80
2018-04-01T01:26:25.521Z,91.10
2018-04-01T01:28:52.586Z,91.20
2018-04-01T01:31:20.450Z,90.80
2018-04-01T01:33:48.500Z,90.80
2018-04-01T01:36:15.575Z,90.70
2018-04-01T01:38:43.406Z,90.70
2018-04-01T01:41:10.669Z,90.70
2018-04-01T01:43:37.733Z,90.40
2018-04-01T01:46:05.667Z,90.60
2018-04-01T01:48:33.032Z,90.60
2018-04-01T01:51:00.094Z,90.70
2018-04-01T01:53:27.180Z,90.70
2018-04-01T01:55:54.638Z,90.70
2018-04-01T01:58:21.713Z,90.50
2018-04-01T02:00:48.778Z,90.60
2018-04-01T02:03:15.893Z,90.20
2018-04-01T02:05:42.953Z,90.60
2018-04-01T02:08:10.017Z,90.90
2018-04-01T02:10:37.269Z,90.90
2018-04-01T02:13:04.333Z,90.40
2018-04-01T02:15:31.408Z,90.60
2018-04-01T02:17:59.538Z,90.50
2018-04-01T02:20:26.602Z,90.50
2018-04-01T02:22:53.666Z,90.60
2018-04-01T02:25:20.877Z,90.80
2018-04-01T02:27:47.950Z,90.50
2018-04-01T02:30:15.028Z,90.80
2018-04-01T02:32:42.333Z,90.80
2018-04-01T02:35:09.402Z,90.90
2018-04-01T02:37:36.471Z,90.60
2018-04-01T02:40:04.331Z,90.80
2018-04-01T02:42:31.434Z,90.80
2018-04-01T02:44:58.504Z,90.90
2018-04-01T02:47:25.624Z,90.80
2018-04-01T02:49:52.690Z,90.50
2018-04-01T02:52:19.761Z,89.70
2018-04-01T02:54:47.014Z,89.50
2018-04-01T02:57:14.074Z,89.80
2018-04-01T02:59:41.901Z,90.10
2018-04-01T03:02:09.163Z,90.10
2018-04-01T03:04:36.262Z,90.30
2018-04-01T03:07:03.350Z,90.10
2018-04-01T03:09:30.652Z,90.30
2018-04-01T03:11:57.714Z,90.20
2018-04-01T03:14:24.782Z,89.30
2018-04-01T03:16:52.064Z,89.60
2018-04-01T03:19:19.121Z,90.00
2018-04-01T03:21:46.221Z,89.40
2018-04-01T03:24:13.629Z,89.80
2018-04-01T03:26:40.706Z,89.60
2018-04-01T03:29:07.993Z,88.80
2018-04-01T03:31:35.102Z,89.80
2018-04-01T03:34:02.163Z,89.50
2018-04-01T03:36:29.227Z,89.20
2018-04-01T03:38:56.314Z,90.00
2018-04-01T03:41:23.372Z,89.60
2018-04-01T03:43:50.446Z,88.90
2018-04-01T03:46:17.565Z,89.10
2018-04-01T03:48:44.627Z,88.90
2018-04-01T03:51:11.717Z,88.40
2018-04-01T03:53:40.206Z,88.30
2018-04-01T03:56:07.266Z,88.40
2018-04-01T03:58:34.365Z,88.60
2018-04-01T04:01:02.246Z,89.40
2018-04-01T04:03:29.358Z,89.30
2018-04-01T04:05:56.434Z,89.90
2018-04-01T04:08:23.504Z,89.30
2018-04-01T04:10:50.995Z,89.60
2018-04-01T04:13:18.790Z,88.90
2018-04-01T04:15:45.846Z,88.40
2018-04-01T04:18:13.331Z,89.20
2018-04-01T04:20:40.402Z,89.40
2018-04-01T04:23:07.457Z,89.40
2018-04-01T04:25:34.713Z,89.20
2018-04-01T04:28:01.773Z,88.60
2018-04-01T04:30:28.833Z,88.20
2018-04-01T04:32:56.713Z,88.70
2018-04-01T04:35:24.538Z,88.50
2018-04-01T04:37:51.613Z,88.50
2018-04-01T04:40:19.500Z,88.50
2018-04-01T04:42:46.560Z,88.40
2018-04-01T04:45:13.648Z,88.30
2018-04-01T04:47:40.873Z,88.20
2018-04-01T04:50:07.969Z,87.70
2018-04-01T04:52:35.029Z,88.20
2018-04-01T04:55:02.255Z,87.50
2018-04-01T04:57:29.459Z,87.80
2018-04-01T04:59:56.518Z,88.00
2018-04-01T05:02:23.601Z,87.20
2018-04-01T05:04:50.677Z,86.80
2018-04-01T05:07:17.747Z,86.90
2018-04-01T05:09:45.260Z,86.50
2018-04-01T05:12:12.321Z,87.10
2018-04-01T05:14:40.155Z,87.10
2018-04-01T05:17:07.291Z,87.00
2018-04-01T05:19:34.381Z,87.20
2018-04-01T05:22:01.459Z,88.20
2018-04-01T05:24:28.772Z,87.60
2018-04-01T05:26:55.841Z,87.60
2018-04-01T05:29:23.665Z,86.30
2018-04-01T05:31:50.937Z,86.30
2018-04-01T05:34:17.994Z,86.80
2018-04-01T05:36:45.066Z,86.90
2018-04-01T05:39:12.273Z,86.40
2018-04-01T05:41:39.335Z,86.70
2018-04-01T05:44:06.487Z,86.60
2018-04-01T05:46:33.566Z,86.10
2018-04-01T05:49:00.849Z,85.40
2018-04-01T05:51:27.937Z,84.80
2018-04-01T05:53:55.249Z,85.30
2018-04-01T05:56:22.305Z,85.10
2018-04-01T05:58:49.361Z,84.60
2018-04-01T06:01:16.449Z,84.80
2018-04-01T06:03:43.773Z,84.50
2018-04-01T06:06:10.831Z,84.00
2018-04-01T06:08:38.007Z,83.70
2018-04-01T06:11:05.325Z,85.00
2018-04-01T06:13:32.422Z,84.10
2018-04-01T06:15:59.490Z,84.00
2018-04-01T06:18:26.548Z,84.20
2018-04-01T06:20:54.082Z,84.20
2018-04-01T06:23:21.173Z,83.70
2018-04-01T06:25:48.229Z,83.40
2018-04-01T06:28:15.345Z,83.50
2018-04-01T06:30:43.184Z,83.30
2018-04-01T06:33:11.010Z,82.50
2018-04-01T06:35:38.229Z,82.50
2018-04-01T06:38:05.286Z,82.40
2018-04-01T06:40:32.570Z,81.50
2018-04-01T06:43:00.013Z,81.90
2018-04-01T06:45:27.196Z,82.00
2018-04-01T06:47:54.261Z,81.40
2018-04-01T06:50:21.382Z,80.80
2018-04-01T06:52:48.450Z,80.50
2018-04-01T06:55:16.273Z,80.50
2018-04-01T06:57:43.527Z,80.50
2018-04-01T07:00:10.613Z,80.10
2018-04-01T07:02:38.440Z,79.20
2018-04-01T07:05:05.692Z,79.20
2018-04-01T07:07:32.750Z,79.30
2018-04-01T07:09:59.830Z,79.20
2018-04-01T07:12:27.040Z,78.30
2018-04-01T07:14:54.129Z,78.20
2018-04-01T07:17:21.186Z,77.90
2018-04-01T07:19:48.308Z,77.80
2018-04-01T07:22:16.128Z,77.40
2018-04-01T07:24:43.193Z,77.40
2018-04-01T07:27:10.390Z,77.30
2018-04-01T07:29:38.201Z,78.00
2018-04-01T07:32:05.258Z,77.90
2018-04-01T07:34:32.368Z,77.90
2018-04-01T07:36:59.435Z,78.00
2018-04-01T07:39:26.491Z,78.00
2018-04-01T07:41:54.221Z,77.90
2018-04-01T07:44:21.276Z,78.30
2018-04-01T07:46:48.329Z,78.00
2018-04-01T07:49:15.522Z,78.50
2018-04-01T07:51:42.705Z,78.00
2018-04-01T07:54:10.530Z,77.50
2018-04-01T07:56:37.635Z,77.50
2018-04-01T07:59:04.689Z,77.40
2018-04-01T08:01:31.748Z,77.50
2018-04-01T08:03:58.985Z,77.20
2018-04-01T08:06:26.044Z,77.10
2018-04-01T08:08:53.865Z,76.80
2018-04-01T08:11:21.094Z,76.80
2018-04-01T08:13:48.149Z,77.00
2018-04-01T08:16:15.202Z,76.30
2018-04-01T08:18:42.402Z,76.70
2018-04-01T08:21:09.459Z,76.60
2018-04-01T08:23:36.514Z,75.90
2018-04-01T08:26:03.785Z,75.20
2018-04-01T08:28:30.866Z,75.70
2018-04-01T08:30:58.749Z,74.60
2018-04-01T08:33:27.389Z,73.80
2018-04-01T08:35:54.452Z,73.70
2018-04-01T08:38:21.519Z,74.30
2018-04-01T08:40:49.397Z,73.50
2018-04-01T08:43:16.453Z,73.50
2018-04-01T08:45:43.502Z,73.50
2018-04-01T08:48:10.605Z,73.50
2018-04-01T08:50:37.681Z,73.20
2018-04-01T08:53:04.992Z,72.70
2018-04-01T08:55:32.045Z,73.10
2018-04-01T08:57:59.146Z,73.40
2018-04-01T09:00:26.351Z,73.20
2018-04-01T09:02:53.409Z,73.20
2018-04-01T09:05:20.464Z,73.40
2018-04-01T09:07:48.518Z,72.50
2018-04-01T09:10:15.589Z,72.50
2018-04-01T09:12:43.638Z,72.20
2018-04-01T09:15:10.697Z,72.10
2018-04-01T09:17:38.569Z,72.20
2018-04-01T09:20:06.446Z,71.90
2018-04-01T09:22:34.257Z,71.70
2018-04-01T09:25:01.365Z,71.60
2018-04-01T09:27:29.186Z,71.80
2018-04-01T09:29:56.289Z,71.90
2018-04-01T09:32:24.379Z,71.20
2018-04-01T09:34:51.445Z,71.20
2018-04-01T09:37:18.505Z,70.60
2018-04-01T09:39:45.611Z,70.50
2018-04-01T09:42:12.726Z,71.00
2018-04-01T09:44:40.560Z,70.10
2018-04-01T09:47:07.725Z,70.10
2018-04-01T09:49:35.133Z,70.50
2018-04-01T09:52:02.933Z,70.10
2018-04-01T09:54:30.000Z,70.00
2018-04-01T09:56:57.117Z,70.70
2018-04-01T09:59:24.174Z,70.30
2018-04-01T10:01:51.717Z,70.70
2018-04-01T10:04:19.316Z,71.20
2018-04-01T10:06:47.069Z,71.60
2018-04-01T10:09:14.610Z,71.30
2018-04-01T10:11:42.169Z,70.80
2018-04-01T10:14:09.906Z,70.80
2018-04-01T10:16:37.445Z,70.50
2018-04-01T10:19:04.990Z,70.20
2018-04-01T10:21:32.847Z,69.80
2018-04-01T10:24:00.752Z,69.40
2018-04-01T10:26:29.058Z,67.90
2018-04-01T10:28:56.602Z,67.90
2018-04-01T10:31:24.310Z,66.40
2018-04-01T10:33:51.853Z,66.50
2018-04-01T10:36:19.422Z,66.80
2018-04-01T10:38:48.283Z,66.20
2018-04-01T10:41:15.839Z,66.00
2018-04-01T10:43:43.389Z,65.80
2018-04-01T10:46:10.990Z,66.40
2018-04-01T10:48:38.537Z,65.60
2018-04-01T10:51:06.084Z,65.80
2018-04-01T10:53:33.695Z,65.10
2018-04-01T10:56:01.514Z,65.10
2018-04-01T10:58:28.578Z,65.10
2018-04-01T11:00:55.693Z,65.20
2018-04-01T11:03:22.749Z,65.10
2018-04-01T11:05:49.810Z,64.90
2018-04-01T11:08:16.922Z,64.80
2018-04-01T11:10:43.980Z,64.60
2018-04-01T11:13:11.265Z,64.70
2018-04-01T11:15:38.371Z,64.10
2018-04-01T11:18:06.200Z,65.20
2018-04-01T11:20:33.264Z,65.20
2018-04-01T11:23:01.189Z,64.70
2018-04-01T11:25:28.283Z,64.70
2018-04-01T11:27:55.340Z,64.50
2018-04-01T11:30:22.665Z,64.20
2018-04-01T11:32:49.906Z,64.20
2018-04-01T11:35:16.967Z,63.70
2018-04-01T11:37:44.018Z,63.00
2018-04-01T11:40:11.097Z,63.10
2018-04-01T11:42:39.127Z,62.10
2018-04-01T11:45:06.265Z,62.10
2018-04-01T11:47:33.330Z,61.30
2018-04-01T11:50:01.946Z,59.10
2018-04-01T11:52:29.825Z,58.60
2018-04-01T11:54:57.274Z,58.60
2018-04-01T11:57:25.094Z,58.00
2018-04-01T11:59:52.562Z,58.00
2018-04-01T12:02:19.649Z,57.90
2018-04-01T12:04:46.700Z,57.90
2018-04-01T12:07:14.582Z,57.80
2018-04-01T12:09:41.634Z,57.90
2018-04-01T12:12:08.689Z,57.60
2018-04-01T12:14:35.938Z,57.30
2018-04-01T12:17:02.973Z,57.30
2018-04-01T12:19:30.047Z,57.00
2018-04-01T12:21:57.149Z,56.10
2018-04-01T12:24:24.203Z,56.60
2018-04-01T12:26:51.267Z,55.80
2018-04-01T12:29:18.568Z,56.70
2018-04-01T12:31:45.625Z,56.00
2018-04-01T12:34:13.452Z,56.70
2018-04-01T12:36:40.625Z,56.20
2018-04-01T12:39:07.687Z,56.50
2018-04-01T12:41:35.034Z,56.50
2018-04-01T12:44:02.135Z,55.80
2018-04-01T12:46:29.207Z,55.60
2018-04-01T12:48:56.261Z,56.20
2018-04-01T12:51:23.526Z,56.00
2018-04-01T12:53:50.597Z,55.80
2018-04-01T12:56:17.717Z,55.20
2018-04-01T12:58:44.973Z,54.70
2018-04-01T13:01:12.041Z,55.30
2018-04-01T13:03:39.116Z,54.40
2018-04-01T13:06:06.202Z,54.00
2018-04-01T13:08:33.252Z,54.10
2018-04-01T13:11:00.321Z,53.60
2018-04-01T13:13:27.671Z,53.60
2018-04-01T13:15:55.513Z,53.70
2018-04-01T13:18:22.586Z,53.60
2018-04-01T13:20:49.827Z,53.50
2018-04-01T13:23:16.881Z,54.20
2018-04-01T13:25:43.957Z,54.10
2018-04-01T13:28:11.943Z,53.50
2018-04-01T13:30:38.997Z,53.50
2018-04-01T13:33:06.053Z,53.80
2018-04-01T13:35:33.158Z,53.70
2018-04-01T13:38:00.985Z,54.20
2018-04-01T13:40:28.044Z,54.10
2018-04-01T13:42:55.305Z,54.10
2018-04-01T13:45:22.363Z,53.80
2018-04-01T13:47:49.415Z,54.40
2018-04-01T13:50:16.522Z,54.30
2018-04-01T13:52:43.579Z,53.70
2018-04-01T13:55:11.162Z,54.00
2018-04-01T13:57:38.214Z,54.00
2018-04-01T14:00:05.273Z,54.40
2018-04-01T14:02:33.253Z,54.60
2018-04-01T14:05:00.319Z,54.60
2018-04-01T14:07:27.378Z,54.50
2018-04-01T14:09:54.674Z,55.00
2018-04-01T14:12:22.170Z,54.70
2018-04-01T14:14:50.010Z,55.20
2018-04-01T14:17:17.073Z,55.20
2018-04-01T14:19:45.482Z,56.10
2018-04-01T14:22:12.554Z,55.80
2018-04-01T14:24:39.609Z,55.80
2018-04-01T14:27:06.878Z,55.30
2018-04-01T14:29:33.941Z,55.50
2018-04-01T14:32:01.764Z,56.30
2018-04-01T14:34:28.889Z,56.30
2018-04-01T14:36:56.709Z,56.00
2018-04-01T14:39:23.769Z,56.00
2018-04-01T14:41:51.821Z,56.40
2018-04-01T14:44:18.883Z,56.40
2018-04-01T14:46:46.008Z,56.40
2018-04-01T14:49:13.062Z,56.30
2018-04-01T14:51:40.125Z,56.50
2018-04-01T14:54:07.314Z,56.70
2018-04-01T14:56:34.375Z,56.40
2018-04-01T14:59:01.645Z,56.50
2018-04-01T15:01:28.757Z,56.90
2018-04-01T15:03:55.821Z,56.90
2018-04-01T15:06:23.003Z,57.40
2018-04-01T15:08:50.565Z,56.90
2018-04-01T15:11:17.706Z,57.10
2018-04-01T15:13:44.845Z,57.10
2018-04-01T15:16:11.910Z,57.10
2018-04-01T15:18:38.975Z,57.20
2018-04-01T15:21:06.061Z,57.50
2018-04-01T15:23:33.141Z,57.80
2018-04-01T15:26:00.201Z,58.10
2018-04-01T15:28:27.364Z,58.50
2018-04-01T15:30:54.433Z,58.70
2018-04-01T15:33:22.405Z,58.80
2018-04-01T15:35:49.521Z,59.20
2018-04-01T15:38:16.588Z,59.60
2018-04-01T15:40:43.645Z,59.80
2018-04-01T15:43:11.522Z,60.40
2018-04-01T15:45:39.348Z,60.50
2018-04-01T15:48:06.415Z,60.40
2018-04-01T15:50:33.472Z,60.30
2018-04-01T15:53:00.537Z,60.80
2018-04-01T15:55:28.404Z,61.30
2018-04-01T15:57:55.482Z,61.30
2018-04-01T16:00:22.541Z,61.20
2018-04-01T16:02:49.598Z,62.00
2018-04-01T16:05:16.699Z,61.90
2018-04-01T16:07:43.766Z,62.20
2018-04-01T16:10:10.848Z,62.60
2018-04-01T16:12:38.170Z,63.30
2018-04-01T16:15:05.242Z,63.50
2018-04-01T16:17:32.303Z,64.00
2018-04-01T16:19:59.710Z,64.00
2018-04-01T16:22:26.757Z,64.00
2018-04-01T16:24:53.825Z,64.50
2018-04-01T16:27:21.069Z,65.10
2018-04-01T16:29:48.129Z,65.80
2018-04-01T16:32:15.181Z,65.60
2018-04-01T16:34:42.292Z,65.10
2018-04-01T16:37:10.114Z,65.00
2018-04-01T16:39:37.214Z,64.90
2018-04-01T16:42:04.416Z,65.10
2018-04-01T16:44:31.653Z,65.10
2018-04-01T16:46:58.710Z,64.80
2018-04-01T16:49:26.069Z,64.60
2018-04-01T16:51:53.131Z,64.90
2018-04-01T16:54:20.186Z,65.20
2018-04-01T16:56:47.654Z,65.20
2018-04-01T16:59:15.469Z,65.50
2018-04-01T17:01:42.527Z,65.40
2018-04-01T17:04:09.629Z,65.90
2018-04-01T17:06:37.903Z,65.80
2018-04-01T17:09:05.719Z,66.10
2018-04-01T17:11:32.910Z,66.10
2018-04-01T17:14:00.258Z,66.00
2018-04-01T17:16:28.093Z,66.60
2018-04-01T17:18:55.249Z,66.30
2018-04-01T17:21:22.614Z,66.60
2018-04-01T17:23:50.473Z,67.10
2018-04-01T17:26:17.538Z,67.00
2018-04-01T17:28:44.654Z,67.10
2018-04-01T17:31:11.722Z,68.20
2018-04-01T17:33:38.864Z,67.30
2018-04-01T17:36:05.978Z,68.10
2018-04-01T17:38:33.034Z,68.10
2018-04-01T17:41:00.706Z,67.80
2018-04-01T17:43:28.490Z,68.70
2018-04-01T17:45:55.546Z,68.60
2018-04-01T17:48:22.794Z,68.70
2018-04-01T17:50:49.855Z,68.70
2018-04-01T17:53:16.912Z,68.70
2018-04-01T17:55:44.798Z,69.60
2018-04-01T17:58:12.617Z,69.10
2018-04-01T18:00:40.473Z,69.50
2018-04-01T18:03:07.561Z,69.20
2018-04-01T18:05:34.613Z,69.70
2018-04-01T18:08:02.441Z,70.10
2018-04-01T18:10:29.562Z,70.10
2018-04-01T18:12:56.617Z,70.10
2018-04-01T18:15:23.695Z,70.30
2018-04-01T18:17:50.815Z,70.70
2018-04-01T18:20:18.125Z,70.60
2018-04-01T18:22:45.949Z,71.00
2018-04-01T18:25:13.070Z,70.90
2018-04-01T18:27:40.132Z,71.20
2018-04-01T18:30:07.189Z,71.10
2018-04-01T18:32:34.295Z,71.50
2018-04-01T18:35:01.353Z,71.80
2018-04-01T18:37:28.507Z,71.80
2018-04-01T18:39:55.621Z,72.10
2018-04-01T18:42:22.696Z,71.90
2018-04-01T18:44:49.766Z,72.20
2018-04-01T18:47:16.945Z,72.20
2018-04-01T18:49:43.999Z,72.00
2018-04-01T18:52:12.567Z,71.90
2018-04-01T18:54:40.304Z,71.90
2018-04-01T18:57:07.401Z,72.00
2018-04-01T18:59:34.465Z,71.90
2018-04-01T19:02:01.576Z,71.90
2018-04-01T19:04:28.680Z,71.80
2018-04-01T19:06:55.770Z,72.10
2018-04-01T19:09:23.349Z,71.90
2018-04-01T19:11:50.425Z,72.10
2018-04-01T19:14:18.245Z,72.30
2018-04-01T19:16:58.669Z,72.30
2018-04-01T19:19:26.224Z,72.50
2018-04-01T19:21:53.914Z,72.40
2018-04-01T19:24:21.482Z,72.50
2018-04-01T19:26:49.033Z,72.40
2018-04-01T19:29:16.725Z,72.20
2018-04-01T19:31:44.274Z,72.30
2018-04-01T19:34:12.235Z,72.70
2018-04-01T19:36:39.842Z,72.80
2018-04-01T19:39:07.414Z,72.60
2018-04-01T19:41:35.787Z,73.30
2018-04-01T19:44:03.348Z,73.30
2018-04-01T19:46:31.660Z,73.40
2018-04-01T19:48:59.258Z,73.40
2018-04-01T19:51:26.810Z,73.00
2018-04-01T19:53:54.589Z,73.10
2018-04-01T19:56:22.161Z,73.40
2018-04-01T19:58:49.719Z,73.30
2018-04-01T20:01:18.089Z,73.80
2018-04-01T20:03:47.157Z,73.60
2018-04-01T20:06:14.709Z,73.50
2018-04-01T20:08:42.907Z,73.50
2018-04-01T20:11:10.466Z,73.50
2018-04-01T20:13:38.014Z,73.70
2018-04-01T20:16:05.985Z,73.10
2018-04-01T20:18:33.573Z,73.10
2018-04-01T20:21:01.561Z,73.30
2018-04-01T20:23:29.137Z,73.10
2018-04-01T20:25:56.685Z,73.40
2018-04-01T20:28:24.245Z,73.10
2018-04-01T20:30:51.838Z,73.00
2018-04-01T20:33:19.393Z,73.10
2018-04-01T20:35:46.943Z,73.40
2018-04-01T20:38:14.762Z,73.70
2018-04-01T20:40:42.373Z,73.40
2018-04-01T20:43:09.931Z,73.50
2018-04-01T20:45:37.521Z,73.40
2018-04-01T20:48:05.066Z,73.40
2018-04-01T20:50:32.613Z,73.50
2018-04-01T20:53:00.523Z,72.90
2018-04-01T20:55:28.071Z,72.70
2018-04-01T20:57:55.805Z,73.30
2018-04-01T21:00:23.903Z,72.90
2018-04-01T21:02:51.452Z,72.50
2018-04-01T21:05:18.998Z,72.20
2018-04-01T21:07:46.885Z,72.20
2018-04-01T21:10:14.433Z,72.00
2018-04-01T21:12:41.981Z,71.90
2018-04-01T21:15:09.880Z,71.30
2018-04-01T21:17:37.428Z,71.30
2018-04-01T21:20:04.988Z,70.60
2018-04-01T21:22:32.879Z,70.30
2018-04-01T21:25:00.419Z,70.00
2018-04-01T21:27:27.966Z,70.20
2018-04-01T21:29:55.573Z,70.00
2018-04-01T21:32:23.901Z,69.70
2018-04-01T21:34:51.462Z,69.70
2018-04-01T21:37:20.156Z,69.60
2018-04-01T21:39:47.705Z,69.50
2018-04-01T21:42:15.285Z,69.60
2018-04-01T21:44:42.832Z,70.00
2018-04-01T21:47:10.374Z,69.60
2018-04-01T21:56:20.370Z,69.20
2018-04-01T21:58:47.924Z,69.70
2018-04-01T22:01:15.482Z,69.30
2018-04-01T22:03:43.178Z,68.70
2018-04-01T22:06:10.730Z,68.90
2018-04-01T22:08:38.275Z,68.80
2018-04-01T22:11:05.957Z,68.60
2018-04-01T22:13:33.511Z,68.90
2018-04-01T22:16:01.062Z,68.60
2018-04-01T22:18:28.758Z,68.70
2018-04-01T22:20:57.070Z,68.00
2018-04-01T22:23:24.618Z,68.10
2018-04-01T22:25:53.189Z,67.60
2018-04-01T22:28:21.525Z,67.00
2018-04-01T22:30:49.065Z,67.00
2018-04-01T22:33:16.941Z,66.90
2018-04-01T22:35:44.485Z,67.00
2018-04-01T22:38:12.025Z,66.50
2018-04-01T22:40:39.838Z,66.50
2018-04-01T22:43:07.381Z,65.90
2018-04-01T22:45:34.921Z,66.00
2018-04-01T22:48:02.596Z,65.40
2018-04-01T22:50:30.141Z,65.60
2018-04-01T22:52:57.689Z,65.20
2018-04-01T22:55:25.755Z,64.70
2018-04-01T22:57:53.329Z,64.60
2018-04-01T23:00:21.636Z,64.60
2018-04-01T23:02:49.508Z,64.80
2018-04-01T23:05:17.066Z,64.90
2018-04-01T23:07:44.632Z,64.60
2018-04-01T23:10:12.363Z,64.60
2018-04-01T23:12:39.927Z,64.30
2018-04-01T23:15:07.493Z,64.70
2018-04-01T23:17:35.362Z,64.60
2018-04-01T23:20:02.906Z,64.00
2018-04-01T23:22:30.489Z,64.10
2018-04-01T23:24:58.350Z,64.00
2018-04-01T23:27:25.903Z,64.40
2018-04-01T23:29:53.452Z,64.40
2018-04-01T23:32:21.048Z,64.50
2018-04-01T23:34:48.602Z,64.70
2018-04-01T23:37:16.152Z,64.60
2018-04-01T23:39:43.886Z,64.30
2018-04-01T23:42:11.439Z,64.10
2018-04-01T23:44:38.981Z,64.40
2018-04-01T23:47:07.715Z,64.50
2018-04-01T23:49:35.269Z,64.50
2018-04-01T23:52:02.832Z,63.80
2018-04-01T23:54:30.426Z,64.10
2018-04-01T23:56:58.053Z,64.30
2018-04-01T23:59:25.602Z,64.60
